Time,TemperatureF,DewpointF,PressureIn,WindDirection,WindDirectionDegrees,WindSpeedMPH,WindSpeedGustMPH,Humidity,HourlyPrecipIn,Conditions,Clouds,dailyrainin,SoftwareType,DateUTC
2013-10-25 00:01:00,29.5,28.0,30.13,West,267,0.7,0.9,94,0.00,,,0.00,WUHU216HW,2013-10-25 04:01:00,
2013-10-25 00:02:00,29.3,27.8,30.13,WSW,247,0.9,1.1,94,0.00,,,0.00,WUHU216HW,2013-10-25 04:02:00,
2013-10-25 00:03:00,29.3,27.8,30.13,SW,234,1.2,1.3,94,0.00,,,0.00,WUHU216HW,2013-10-25 04:03:00,
2013-10-25 00:05:00,29.3,28.1,30.13,WSW,238,2.1,3.1,96,0.00,,,0.00,WUHU216HW,2013-10-25 04:05:00,
2013-10-25 00:06:00,29.3,28.1,30.14,SW,219,1.0,2.0,96,0.00,,,0.00,WUHU216HW,2013-10-25 04:06:00,
2013-10-25 00:11:00,29.3,28.1,30.13,SW,215,1.2,1.6,96,0.00,,,0.00,WUHU216HW,2013-10-25 04:11:00,
2013-10-25 00:13:00,29.3,28.1,30.13,SW,227,1.3,1.8,96,0.00,,,0.00,WUHU216HW,2013-10-25 04:13:00,
2013-10-25 00:18:00,29.2,28.0,30.14,SW,225,0.4,0.4,96,0.00,,,0.00,WUHU216HW,2013-10-25 04:18:00,
2013-10-25 00:23:00,29.2,28.0,30.13,WSW,248,0.9,1.1,96,0.00,,,0.00,WUHU216HW,2013-10-25 04:23:00,
2013-10-25 00:28:00,29.0,27.8,30.14,SW,218,1.5,2.7,96,0.00,,,0.00,WUHU216HW,2013-10-25 04:28:00,
2013-10-25 00:33:00,28.8,27.6,30.14,SW,226,0.9,1.1,96,0.00,,,0.00,WUHU216HW,2013-10-25 04:33:00,
2013-10-25 00:38:00,28.4,27.2,30.14,SW,225,0.6,0.7,96,0.00,,,0.00,WUHU216HW,2013-10-25 04:38:00,
2013-10-25 00:43:00,28.4,27.2,30.14,WSW,239,2.0,2.7,96,0.00,,,0.00,WUHU216HW,2013-10-25 04:43:00,
2013-10-25 00:48:00,28.4,27.5,30.14,SW,225,1.1,1.6,97,0.00,,,0.00,WUHU216HW,2013-10-25 04:48:00,
2013-10-25 00:53:00,28.4,27.5,30.14,WSW,245,1.1,1.3,97,0.00,,,0.00,WUHU216HW,2013-10-25 04:53:00,
2013-10-25 00:58:00,28.4,27.5,30.14,SW,225,0.5,1.1,97,0.00,,,0.00,WUHU216HW,2013-10-25 04:58:00,
2013-10-25 01:03:00,28.4,27.5,30.14,WSW,248,0.9,1.1,97,0.00,,,0.00,WUHU216HW,2013-10-25 05:03:00,
2013-10-25 01:08:00,28.4,27.5,30.14,WSW,242,1.0,1.1,97,0.00,,,0.00,WUHU216HW,2013-10-25 05:08:00,
2013-10-25 01:13:00,28.4,27.5,30.15,West,270,0.6,1.1,97,0.00,,,0.00,WUHU216HW,2013-10-25 05:13:00,
2013-10-25 01:18:00,28.4,27.5,30.14,WSW,248,0.0,0.2,97,0.00,,,0.00,WUHU216HW,2013-10-25 05:18:00,
2013-10-25 01:23:00,28.4,27.5,30.14,WSW,248,0.2,0.4,97,0.00,,,0.00,WUHU216HW,2013-10-25 05:23:00,
2013-10-25 01:28:00,28.4,27.5,30.14,SW,225,0.0,0.2,97,0.00,,,0.00,WUHU216HW,2013-10-25 05:28:00,
2013-10-25 01:33:00,28.3,27.4,30.14,WSW,248,0.1,0.2,97,0.00,,,0.00,WUHU216HW,2013-10-25 05:33:00,
2013-10-25 01:38:00,28.1,26.9,30.15,SW,225,0.9,1.1,96,0.00,,,0.00,WUHU216HW,2013-10-25 05:38:00,
2013-10-25 01:43:00,27.9,26.8,30.15,WSW,240,1.2,2.2,96,0.00,,,0.00,WUHU216HW,2013-10-25 05:43:00,
2013-10-25 01:49:00,27.9,26.8,30.15,WSW,248,1.1,1.1,96,0.00,,,0.00,WUHU216HW,2013-10-25 05:49:00,
2013-10-25 01:54:00,27.9,26.8,30.15,WSW,244,1.1,1.3,96,0.00,,,0.00,WUHU216HW,2013-10-25 05:54:00,
2013-10-25 01:59:00,27.7,26.6,30.15,SW,227,1.6,2.2,96,0.00,,,0.00,WUHU216HW,2013-10-25 05:59:00,
2013-10-25 02:04:00,27.7,26.6,30.15,WSW,247,1.3,3.4,96,0.00,,,0.00,WUHU216HW,2013-10-25 06:04:00,
2013-10-25 02:09:00,27.7,26.6,30.15,WSW,238,1.1,1.8,96,0.00,,,0.00,WUHU216HW,2013-10-25 06:09:00,
2013-10-25 02:14:00,27.7,26.6,30.15,SW,234,1.0,1.1,96,0.00,,,0.00,WUHU216HW,2013-10-25 06:14:00,
2013-10-25 02:19:00,27.5,26.4,30.15,SW,221,1.7,2.5,96,0.00,,,0.00,WUHU216HW,2013-10-25 06:19:00,
2013-10-25 02:24:00,27.7,26.8,30.16,WSW,238,0.9,1.1,97,0.00,,,0.00,WUHU216HW,2013-10-25 06:24:00,
2013-10-25 02:29:00,27.7,26.6,30.16,SW,225,0.7,1.1,96,0.00,,,0.00,WUHU216HW,2013-10-25 06:29:00,
2013-10-25 02:34:00,27.5,26.6,30.16,SW,225,0.8,1.1,97,0.00,,,0.00,WUHU216HW,2013-10-25 06:34:00,
2013-10-25 02:39:00,27.5,26.6,30.16,SW,225,0.7,1.1,97,0.00,,,0.00,WUHU216HW,2013-10-25 06:39:00,
2013-10-25 02:44:00,27.5,26.6,30.16,SW,228,1.4,1.6,97,0.00,,,0.00,WUHU216HW,2013-10-25 06:44:00,
2013-10-25 02:49:00,27.4,26.5,30.16,West,260,1.4,2.2,97,0.00,,,0.00,WUHU216HW,2013-10-25 06:49:00,
2013-10-25 02:54:00,27.4,26.5,30.16,WSW,244,0.5,1.1,97,0.00,,,0.00,WUHU216HW,2013-10-25 06:54:00,
2013-10-25 02:59:00,27.2,26.3,30.16,SW,225,0.4,0.4,97,0.00,,,0.00,WUHU216HW,2013-10-25 06:59:00,
2013-10-25 03:04:00,27.4,26.5,30.17,WSW,245,1.0,1.1,97,0.00,,,0.00,WUHU216HW,2013-10-25 07:04:00,
2013-10-25 03:09:00,27.2,26.3,30.17,WNW,284,1.4,1.8,97,0.00,,,0.00,WUHU216HW,2013-10-25 07:09:00,
2013-10-25 03:14:00,27.4,26.5,30.17,WSW,239,1.0,1.6,97,0.00,,,0.00,WUHU216HW,2013-10-25 07:14:00,
2013-10-25 03:19:00,27.4,26.5,30.17,SW,229,1.1,1.8,97,0.00,,,0.00,WUHU216HW,2013-10-25 07:19:00,
2013-10-25 03:24:00,27.4,26.5,30.17,SW,234,1.0,1.6,97,0.00,,,0.00,WUHU216HW,2013-10-25 07:24:00,
2013-10-25 03:29:00,27.5,26.6,30.17,North,0,0.0,0.0,97,0.00,,,0.00,WUHU216HW,2013-10-25 07:29:00,
2013-10-25 03:34:00,27.7,26.8,30.17,NNW,338,0.0,0.2,97,0.00,,,0.00,WUHU216HW,2013-10-25 07:34:00,
2013-10-25 03:39:00,27.7,26.8,30.17,North,0,0.0,0.0,97,0.00,,,0.00,WUHU216HW,2013-10-25 07:39:00,
2013-10-25 03:44:00,27.7,26.8,30.17,WNW,293,0.0,0.2,97,0.00,,,0.00,WUHU216HW,2013-10-25 07:44:00,
2013-10-25 03:49:00,27.7,26.8,30.17,West,270,0.1,0.2,97,0.00,,,0.00,WUHU216HW,2013-10-25 07:49:00,
2013-10-25 03:54:00,27.7,26.8,30.17,SW,225,0.4,0.7,97,0.00,,,0.00,WUHU216HW,2013-10-25 07:54:00,
2013-10-25 03:59:00,27.5,26.6,30.17,North,0,0.0,0.0,97,0.00,,,0.00,WUHU216HW,2013-10-25 07:59:00,
2013-10-25 04:04:00,27.2,26.3,30.17,SW,225,0.4,1.1,97,0.00,,,0.00,WUHU216HW,2013-10-25 08:04:00,
2013-10-25 04:09:00,27.0,26.1,30.18,SW,225,0.3,0.9,97,0.00,,,0.00,WUHU216HW,2013-10-25 08:09:00,
2013-10-25 04:14:00,26.8,25.9,30.18,SW,225,0.4,0.7,97,0.00,,,0.00,WUHU216HW,2013-10-25 08:14:00,
2013-10-25 04:19:00,26.6,26.0,30.18,SW,225,0.4,0.4,98,0.00,,,0.00,WUHU216HW,2013-10-25 08:19:00,
2013-10-25 04:24:00,26.6,25.7,30.18,North,0,0.0,0.0,97,0.00,,,0.00,WUHU216HW,2013-10-25 08:24:00,
2013-10-25 04:29:00,26.6,26.0,30.18,WSW,241,0.4,0.4,98,0.00,,,0.00,WUHU216HW,2013-10-25 08:29:00,
2013-10-25 04:34:00,26.6,26.0,30.18,SW,225,0.3,0.4,98,0.00,,,0.00,WUHU216HW,2013-10-25 08:34:00,
2013-10-25 04:40:00,26.6,26.0,30.18,SW,220,1.0,1.6,98,0.00,,,0.00,WUHU216HW,2013-10-25 08:40:00,
2013-10-25 04:45:00,26.6,26.0,30.18,SSW,203,0.6,0.9,98,0.00,,,0.00,WUHU216HW,2013-10-25 08:45:00,
2013-10-25 04:50:00,26.5,25.9,30.18,WSW,244,0.7,1.1,98,0.00,,,0.00,WUHU216HW,2013-10-25 08:50:00,
2013-10-25 04:55:00,26.6,26.0,30.18,SW,227,0.3,0.4,98,0.00,,,0.00,WUHU216HW,2013-10-25 08:55:00,
2013-10-25 05:00:00,26.6,26.0,30.18,SW,225,0.8,1.6,98,0.00,,,0.00,WUHU216HW,2013-10-25 09:00:00,
2013-10-25 05:05:00,26.8,26.2,30.18,SW,230,3.2,4.0,98,0.00,,,0.00,WUHU216HW,2013-10-25 09:05:00,
2013-10-25 05:10:00,26.8,26.2,30.18,WSW,251,1.4,2.0,98,0.00,,,0.00,WUHU216HW,2013-10-25 09:10:00,
2013-10-25 05:15:00,27.0,26.4,30.18,WSW,253,1.7,2.5,98,0.00,,,0.00,WUHU216HW,2013-10-25 09:15:00,
2013-10-25 05:20:00,27.2,26.6,30.18,WSW,239,2.3,3.6,98,0.00,,,0.00,WUHU216HW,2013-10-25 09:20:00,
2013-10-25 05:25:00,27.7,27.1,30.18,WSW,256,1.3,2.5,98,0.00,,,0.00,WUHU216HW,2013-10-25 09:25:00,
2013-10-25 05:30:00,27.9,27.3,30.18,SW,223,1.9,2.5,98,0.00,,,0.00,WUHU216HW,2013-10-25 09:30:00,
2013-10-25 05:35:00,28.1,27.5,30.19,SW,235,2.1,3.4,98,0.00,,,0.00,WUHU216HW,2013-10-25 09:35:00,
2013-10-25 05:40:00,28.3,27.7,30.19,WNW,283,1.3,1.8,98,0.00,,,0.00,WUHU216HW,2013-10-25 09:40:00,
2013-10-25 05:45:00,28.4,27.8,30.19,WSW,255,0.4,1.1,98,0.00,,,0.00,WUHU216HW,2013-10-25 09:45:00,
2013-10-25 05:50:00,28.6,28.0,30.20,SW,232,1.9,2.2,98,0.00,,,0.00,WUHU216HW,2013-10-25 09:50:00,
2013-10-25 05:55:00,28.8,28.2,30.20,WSW,251,1.6,1.8,98,0.00,,,0.00,WUHU216HW,2013-10-25 09:55:00,
2013-10-25 06:00:00,28.8,28.2,30.20,WSW,248,1.3,1.8,98,0.00,,,0.00,WUHU216HW,2013-10-25 10:00:00,
2013-10-25 06:05:00,29.2,28.6,30.20,WSW,256,1.9,3.6,98,0.00,,,0.00,WUHU216HW,2013-10-25 10:05:00,
2013-10-25 06:10:00,29.5,28.9,30.21,WSW,257,2.1,3.4,98,0.00,,,0.00,WUHU216HW,2013-10-25 10:10:00,
2013-10-25 06:15:00,29.9,29.3,30.21,SW,228,1.9,3.4,98,0.00,,,0.00,WUHU216HW,2013-10-25 10:15:00,
2013-10-25 06:20:00,30.1,29.5,30.21,SW,236,2.8,4.7,98,0.00,,,0.00,WUHU216HW,2013-10-25 10:20:00,
2013-10-25 06:25:00,30.2,29.9,30.21,SW,218,3.2,3.8,99,0.00,,,0.00,WUHU216HW,2013-10-25 10:25:00,
2013-10-25 06:30:00,30.6,30.3,30.22,NW,305,2.1,2.5,99,0.00,,,0.00,WUHU216HW,2013-10-25 10:30:00,
2013-10-25 06:35:00,30.6,30.3,30.22,SW,231,2.4,2.7,99,0.00,,,0.00,WUHU216HW,2013-10-25 10:35:00,
2013-10-25 06:40:00,30.6,30.3,30.21,West,269,2.7,3.1,99,0.00,,,0.00,WUHU216HW,2013-10-25 10:40:00,
2013-10-25 06:45:00,30.6,30.3,30.22,WSW,255,2.7,4.9,99,0.00,,,0.00,WUHU216HW,2013-10-25 10:45:00,
2013-10-25 06:50:00,30.2,29.9,30.22,WSW,242,2.5,3.1,99,0.00,,,0.00,WUHU216HW,2013-10-25 10:50:00,
2013-10-25 06:55:00,30.2,29.9,30.22,WSW,254,1.3,2.0,99,0.00,,,0.00,WUHU216HW,2013-10-25 10:55:00,
2013-10-25 07:00:00,29.9,29.3,30.22,WSW,246,1.3,1.6,98,0.00,,,0.00,WUHU216HW,2013-10-25 11:00:00,
2013-10-25 07:05:00,29.9,29.3,30.22,WSW,241,1.9,2.5,98,0.00,,,0.00,WUHU216HW,2013-10-25 11:05:00,
2013-10-25 07:10:00,29.9,29.3,30.22,SW,216,1.3,2.5,98,0.00,,,0.00,WUHU216HW,2013-10-25 11:10:00,
2013-10-25 07:15:00,29.7,29.1,30.22,WSW,246,2.6,2.7,98,0.00,,,0.00,WUHU216HW,2013-10-25 11:15:00,
2013-10-25 07:20:00,29.7,29.1,30.22,West,268,1.9,3.4,98,0.00,,,0.00,WUHU216HW,2013-10-25 11:20:00,
2013-10-25 07:25:00,29.9,29.3,30.22,SW,215,1.9,2.2,98,0.00,,,0.00,WUHU216HW,2013-10-25 11:25:00,
2013-10-25 07:30:00,29.9,29.3,30.23,WSW,237,1.6,2.5,98,0.00,,,0.00,WUHU216HW,2013-10-25 11:30:00,
2013-10-25 07:36:00,29.9,29.3,30.23,West,280,1.2,2.0,98,0.00,,,0.00,WUHU216HW,2013-10-25 11:36:00,
2013-10-25 07:41:00,29.9,29.3,30.23,WSW,241,0.7,1.3,98,0.00,,,0.00,WUHU216HW,2013-10-25 11:41:00,
2013-10-25 07:46:00,29.9,29.3,30.23,WSW,237,2.9,3.6,98,0.00,,,0.00,WUHU216HW,2013-10-25 11:46:00,
2013-10-25 07:51:00,30.1,29.5,30.23,WSW,253,2.9,3.8,98,0.00,,,0.00,WUHU216HW,2013-10-25 11:51:00,
2013-10-25 07:56:00,30.4,30.1,30.23,WSW,253,2.0,2.2,99,0.00,,,0.00,WUHU216HW,2013-10-25 11:56:00,
2013-10-25 08:01:00,30.6,30.3,30.23,SW,226,2.1,4.0,99,0.00,,,0.00,WUHU216HW,2013-10-25 12:01:00,
2013-10-25 08:06:00,30.6,30.3,30.23,West,263,1.2,1.8,99,0.00,,,0.00,WUHU216HW,2013-10-25 12:06:00,
2013-10-25 08:11:00,30.6,30.3,30.24,WSW,254,3.1,3.8,99,0.00,,,0.00,WUHU216HW,2013-10-25 12:11:00,
2013-10-25 08:16:00,30.8,30.5,30.24,WSW,240,2.4,3.6,99,0.00,,,0.00,WUHU216HW,2013-10-25 12:16:00,
2013-10-25 08:21:00,31.0,30.7,30.24,WSW,254,4.2,5.6,99,0.00,,,0.00,WUHU216HW,2013-10-25 12:21:00,
2013-10-25 08:26:00,31.1,30.8,30.24,WSW,254,2.3,6.3,99,0.00,,,0.00,WUHU216HW,2013-10-25 12:26:00,
2013-10-25 08:31:00,31.3,31.0,30.24,WSW,257,2.0,2.5,99,0.00,,,0.00,WUHU216HW,2013-10-25 12:31:00,
2013-10-25 08:36:00,31.3,31.0,30.24,SW,227,2.3,3.1,99,0.00,,,0.00,WUHU216HW,2013-10-25 12:36:00,
2013-10-25 08:41:00,31.5,31.2,30.24,West,270,0.9,1.1,99,0.00,,,0.00,WUHU216HW,2013-10-25 12:41:00,
2013-10-25 08:46:00,31.3,31.0,30.25,WSW,243,1.0,1.1,99,0.00,,,0.00,WUHU216HW,2013-10-25 12:46:00,
2013-10-25 08:51:00,31.3,31.0,30.25,WSW,254,2.0,2.7,99,0.00,,,0.00,WUHU216HW,2013-10-25 12:51:00,
2013-10-25 08:56:00,31.5,31.2,30.25,WSW,237,2.4,2.5,99,0.00,,,0.00,WUHU216HW,2013-10-25 12:56:00,
2013-10-25 09:01:00,31.7,31.4,30.25,SW,235,2.0,3.1,99,0.00,,,0.00,WUHU216HW,2013-10-25 13:01:00,
2013-10-25 09:06:00,31.7,31.4,30.25,West,263,1.5,1.8,99,0.00,,,0.00,WUHU216HW,2013-10-25 13:06:00,
2013-10-25 09:11:00,32.0,31.7,30.25,SW,232,0.9,1.1,99,0.00,,,0.00,WUHU216HW,2013-10-25 13:11:00,
2013-10-25 09:16:00,32.0,31.7,30.26,SW,231,2.5,3.4,99,0.00,,,0.00,WUHU216HW,2013-10-25 13:16:00,
2013-10-25 09:21:00,32.4,32.1,30.26,WSW,248,3.5,5.4,99,0.00,,,0.00,WUHU216HW,2013-10-25 13:21:00,
2013-10-25 09:26:00,32.6,32.3,30.26,WSW,248,1.1,1.3,99,0.00,,,0.00,WUHU216HW,2013-10-25 13:26:00,
2013-10-25 09:31:00,32.8,32.5,30.26,WSW,243,1.1,1.3,99,0.00,,,0.00,WUHU216HW,2013-10-25 13:31:00,
2013-10-25 09:36:00,32.9,32.6,30.26,SW,234,2.0,3.4,99,0.00,,,0.00,WUHU216HW,2013-10-25 13:36:00,
2013-10-25 09:41:00,33.3,33.0,30.26,WSW,238,2.8,3.1,99,0.00,,,0.00,WUHU216HW,2013-10-25 13:41:00,
2013-10-25 09:46:00,33.7,33.4,30.26,West,278,3.6,4.3,99,0.00,,,0.00,WUHU216HW,2013-10-25 13:46:00,
2013-10-25 09:51:00,34.2,33.9,30.27,WSW,258,1.9,3.8,99,0.00,,,0.00,WUHU216HW,2013-10-25 13:51:00,
2013-10-25 09:56:00,34.6,34.3,30.27,WSW,243,4.3,5.8,99,0.00,,,0.00,WUHU216HW,2013-10-25 13:56:00,
2013-10-25 10:01:00,34.9,34.3,30.27,WSW,238,0.7,1.6,98,0.00,,,0.00,WUHU216HW,2013-10-25 14:01:00,
2013-10-25 10:06:00,35.5,34.9,30.27,West,260,4.3,5.4,98,0.00,,,0.00,WUHU216HW,2013-10-25 14:06:00,
2013-10-25 10:11:00,36.0,35.4,30.26,WNW,282,3.6,4.7,98,0.01,,,0.01,WUHU216HW,2013-10-25 14:11:00,
2013-10-25 10:16:00,36.5,36.2,30.27,WNW,302,2.1,2.7,99,0.01,,,0.01,WUHU216HW,2013-10-25 14:16:00,
2013-10-25 10:22:00,37.1,36.8,30.26,West,261,1.2,2.2,99,0.01,,,0.01,WUHU216HW,2013-10-25 14:22:00,
2013-10-25 10:27:00,37.8,37.2,30.27,NNW,331,0.8,2.0,98,0.01,,,0.01,WUHU216HW,2013-10-25 14:27:00,
2013-10-25 10:32:00,38.3,38.0,30.26,WSW,244,2.8,3.8,99,0.01,,,0.01,WUHU216HW,2013-10-25 14:32:00,
2013-10-25 10:37:00,39.2,38.6,30.27,West,276,1.8,2.5,98,0.01,,,0.01,WUHU216HW,2013-10-25 14:37:00,
2013-10-25 10:42:00,39.8,39.2,30.26,NNW,344,1.8,4.0,98,0.01,,,0.01,WUHU216HW,2013-10-25 14:42:00,
2013-10-25 10:47:00,39.6,39.0,30.26,SW,232,1.2,2.5,98,0.01,,,0.01,WUHU216HW,2013-10-25 14:47:00,
2013-10-25 10:52:00,39.6,39.0,30.26,NW,315,0.4,0.4,98,0.01,,,0.01,WUHU216HW,2013-10-25 14:52:00,
2013-10-25 10:57:00,40.0,39.4,30.26,WNW,283,1.6,1.8,98,0.01,,,0.01,WUHU216HW,2013-10-25 14:57:00,
2013-10-25 11:02:00,40.7,40.1,30.26,WSW,239,4.0,4.7,98,0.01,,,0.01,WUHU216HW,2013-10-25 15:02:00,
2013-10-25 11:07:00,41.4,40.5,30.26,WNW,291,3.6,4.0,97,0.01,,,0.01,WUHU216HW,2013-10-25 15:07:00,
2013-10-25 11:12:00,42.1,40.9,30.26,WNW,297,4.4,6.3,96,0.00,,,0.01,WUHU216HW,2013-10-25 15:12:00,
2013-10-25 11:17:00,42.7,41.5,30.26,WSW,237,3.4,4.7,96,0.00,,,0.01,WUHU216HW,2013-10-25 15:17:00,
2013-10-25 11:22:00,43.6,42.1,30.26,SW,227,5.7,6.9,94,0.00,,,0.01,WUHU216HW,2013-10-25 15:22:00,
2013-10-25 11:27:00,43.9,41.4,30.26,West,277,5.0,9.2,91,0.00,,,0.01,WUHU216HW,2013-10-25 15:27:00,
2013-10-25 11:32:00,44.1,41.6,30.26,NW,322,2.0,2.7,91,0.00,,,0.01,WUHU216HW,2013-10-25 15:32:00,
2013-10-25 11:37:00,44.5,41.4,30.26,NNW,330,3.2,6.3,89,0.00,,,0.01,WUHU216HW,2013-10-25 15:37:00,
2013-10-25 11:42:00,45.0,41.2,30.27,North,0,2.5,5.4,87,0.00,,,0.01,WUHU216HW,2013-10-25 15:42:00,
2013-10-25 11:47:00,45.0,40.9,30.26,NW,326,2.5,3.4,85,0.00,,,0.01,WUHU216HW,2013-10-25 15:47:00,
2013-10-25 11:52:00,45.0,40.2,30.26,WNW,287,5.3,8.5,83,0.00,,,0.01,WUHU216HW,2013-10-25 15:52:00,
2013-10-25 11:57:00,44.8,39.3,30.26,WNW,293,3.0,3.4,81,0.00,,,0.01,WUHU216HW,2013-10-25 15:57:00,
2013-10-25 12:02:00,45.0,39.5,30.26,WSW,250,3.0,4.7,81,0.00,,,0.01,WUHU216HW,2013-10-25 16:02:00,
2013-10-25 12:07:00,45.4,39.2,30.26,WSW,257,5.4,9.6,79,0.00,,,0.01,WUHU216HW,2013-10-25 16:07:00,
2013-10-25 12:12:00,44.8,39.0,30.26,NW,317,3.1,3.8,80,0.00,,,0.01,WUHU216HW,2013-10-25 16:12:00,
2013-10-25 12:17:00,45.0,38.8,30.26,West,274,1.7,3.4,79,0.00,,,0.01,WUHU216HW,2013-10-25 16:17:00,
2013-10-25 12:23:00,45.5,39.7,30.25,WSW,241,1.2,1.6,80,0.00,,,0.01,WUHU216HW,2013-10-25 16:23:00,
2013-10-25 12:28:00,45.5,39.3,30.25,WNW,299,3.7,5.8,79,0.00,,,0.01,WUHU216HW,2013-10-25 16:28:00,
2013-10-25 12:33:00,46.1,40.2,30.25,North,4,1.8,3.4,80,0.00,,,0.01,WUHU216HW,2013-10-25 16:33:00,
2013-10-25 12:38:00,46.1,38.8,30.25,West,264,5.6,8.5,75,0.00,,,0.01,WUHU216HW,2013-10-25 16:38:00,
2013-10-25 12:43:00,45.4,38.1,30.25,West,276,3.8,6.9,75,0.00,,,0.01,WUHU216HW,2013-10-25 16:43:00,
2013-10-25 12:48:00,45.0,37.7,30.25,West,262,4.2,4.7,75,0.00,,,0.01,WUHU216HW,2013-10-25 16:48:00,
2013-10-25 12:53:00,44.6,37.7,30.25,West,264,3.6,4.7,76,0.00,,,0.01,WUHU216HW,2013-10-25 16:53:00,
2013-10-25 12:58:00,45.4,38.1,30.25,WNW,286,3.1,3.4,75,0.00,,,0.01,WUHU216HW,2013-10-25 16:58:00,
2013-10-25 13:03:00,46.3,38.6,30.25,WSW,255,6.9,8.9,74,0.00,,,0.01,WUHU216HW,2013-10-25 17:03:00,
2013-10-25 13:08:00,46.4,38.7,30.25,West,273,2.8,4.3,74,0.00,,,0.01,WUHU216HW,2013-10-25 17:08:00,
2013-10-25 13:13:00,46.3,38.2,30.24,WNW,294,1.8,2.5,73,0.00,,,0.01,WUHU216HW,2013-10-25 17:13:00,
2013-10-25 13:18:00,45.9,37.8,30.24,West,266,2.6,3.6,73,0.00,,,0.01,WUHU216HW,2013-10-25 17:18:00,
2013-10-25 13:23:00,45.4,37.0,30.24,West,270,4.0,6.3,72,0.00,,,0.01,WUHU216HW,2013-10-25 17:23:00,
2013-10-25 13:28:00,44.8,36.0,30.24,WSW,245,4.7,6.3,71,0.00,,,0.01,WUHU216HW,2013-10-25 17:28:00,
2013-10-25 13:33:00,44.5,35.7,30.24,WSW,248,8.4,9.8,71,0.00,,,0.01,WUHU216HW,2013-10-25 17:33:00,
2013-10-25 13:38:00,44.1,35.3,30.24,WNW,301,4.1,5.1,71,0.00,,,0.01,WUHU216HW,2013-10-25 17:38:00,
2013-10-25 13:43:00,43.9,35.5,30.23,West,263,2.5,4.0,72,0.00,,,0.01,WUHU216HW,2013-10-25 17:43:00,
2013-10-25 13:48:00,43.9,35.5,30.23,West,278,2.0,2.5,72,0.00,,,0.01,WUHU216HW,2013-10-25 17:48:00,
2013-10-25 13:53:00,43.6,35.6,30.23,WSW,242,8.4,9.8,73,0.00,,,0.01,WUHU216HW,2013-10-25 17:53:00,
2013-10-25 13:58:00,43.6,36.4,30.23,SW,222,6.9,8.3,75,0.00,,,0.01,WUHU216HW,2013-10-25 17:58:00,
2013-10-25 14:03:00,43.6,36.7,30.23,SW,235,6.9,8.9,76,0.00,,,0.01,WUHU216HW,2013-10-25 18:03:00,
2013-10-25 14:08:00,43.4,36.5,30.22,SW,218,5.0,5.8,76,0.00,,,0.01,WUHU216HW,2013-10-25 18:08:00,
2013-10-25 14:13:00,43.6,36.7,30.22,SW,231,4.8,5.4,76,0.00,,,0.01,WUHU216HW,2013-10-25 18:13:00,
2013-10-25 14:18:00,43.9,36.7,30.21,SW,220,4.8,6.7,75,0.00,,,0.01,WUHU216HW,2013-10-25 18:18:00,
2013-10-25 14:23:00,44.5,36.9,30.22,West,278,3.5,4.7,74,0.00,,,0.01,WUHU216HW,2013-10-25 18:23:00,
2013-10-25 14:28:00,45.4,37.3,30.21,West,279,5.5,7.6,73,0.00,,,0.01,WUHU216HW,2013-10-25 18:28:00,
2013-10-25 14:33:00,46.1,38.0,30.21,WSW,253,4.0,5.6,73,0.00,,,0.01,WUHU216HW,2013-10-25 18:33:00,
2013-10-25 14:38:00,46.4,37.9,30.21,West,280,3.2,4.5,72,0.00,,,0.01,WUHU216HW,2013-10-25 18:38:00,
2013-10-25 14:43:00,46.3,37.4,30.21,West,259,5.7,6.5,71,0.00,,,0.01,WUHU216HW,2013-10-25 18:43:00,
2013-10-25 14:48:00,45.7,36.0,30.21,WNW,297,4.9,6.7,69,0.00,,,0.01,WUHU216HW,2013-10-25 18:48:00,
2013-10-25 14:53:00,45.2,36.0,30.21,WSW,254,4.3,6.3,70,0.00,,,0.01,WUHU216HW,2013-10-25 18:53:00,
2013-10-25 14:58:00,45.0,36.2,30.21,WSW,240,3.0,5.8,71,0.00,,,0.01,WUHU216HW,2013-10-25 18:58:00,
2013-10-25 15:04:00,45.0,36.2,30.21,West,268,3.9,5.1,71,0.00,,,0.01,WUHU216HW,2013-10-25 19:04:00,
2013-10-25 15:09:00,45.2,36.8,30.21,WSW,245,3.8,5.6,72,0.00,,,0.01,WUHU216HW,2013-10-25 19:09:00,
2013-10-25 15:14:00,45.0,36.6,30.20,WSW,241,3.8,4.9,72,0.00,,,0.01,WUHU216HW,2013-10-25 19:14:00,
2013-10-25 15:19:00,45.2,37.2,30.20,SW,219,6.2,6.9,73,0.00,,,0.01,WUHU216HW,2013-10-25 19:19:00,
2013-10-25 15:24:00,45.7,37.6,30.20,WSW,238,3.5,4.9,73,0.00,,,0.01,WUHU216HW,2013-10-25 19:24:00,
2013-10-25 15:29:00,45.4,37.0,30.20,West,261,4.9,5.6,72,0.00,,,0.01,WUHU216HW,2013-10-25 19:29:00,
2013-10-25 15:34:00,45.0,36.6,30.20,WNW,287,2.5,3.8,72,0.00,,,0.01,WUHU216HW,2013-10-25 19:34:00,
2013-10-25 15:39:00,44.8,36.4,30.20,WSW,248,2.1,4.7,72,0.00,,,0.01,WUHU216HW,2013-10-25 19:39:00,
2013-10-25 15:44:00,44.8,36.8,30.20,West,276,1.1,2.0,73,0.00,,,0.01,WUHU216HW,2013-10-25 19:44:00,
2013-10-25 15:49:00,44.6,36.6,30.20,SW,230,2.8,4.0,73,0.00,,,0.01,WUHU216HW,2013-10-25 19:49:00,
2013-10-25 15:54:00,44.5,36.5,30.20,West,264,4.0,4.9,73,0.00,,,0.01,WUHU216HW,2013-10-25 19:54:00,
2013-10-25 15:59:00,44.6,36.6,30.19,SW,228,3.7,4.7,73,0.00,,,0.01,WUHU216HW,2013-10-25 19:59:00,
2013-10-25 16:04:00,44.8,36.8,30.19,SW,225,2.5,4.3,73,0.00,,,0.01,WUHU216HW,2013-10-25 20:04:00,
2013-10-25 16:09:00,44.6,36.6,30.19,WSW,249,2.4,3.1,73,0.00,,,0.01,WUHU216HW,2013-10-25 20:09:00,
2013-10-25 16:14:00,44.5,36.5,30.19,WSW,243,2.3,2.7,73,0.00,,,0.01,WUHU216HW,2013-10-25 20:14:00,
2013-10-25 16:19:00,44.5,36.5,30.19,NW,312,4.4,5.6,73,0.00,,,0.01,WUHU216HW,2013-10-25 20:19:00,
2013-10-25 16:24:00,44.5,36.5,30.18,WSW,248,4.9,6.5,73,0.00,,,0.01,WUHU216HW,2013-10-25 20:24:00,
2013-10-25 16:29:00,44.8,36.4,30.18,West,276,4.0,5.4,72,0.00,,,0.01,WUHU216HW,2013-10-25 20:29:00,
2013-10-25 16:34:00,45.0,36.2,30.18,West,277,6.0,8.5,71,0.00,,,0.01,WUHU216HW,2013-10-25 20:34:00,
2013-10-25 16:39:00,44.8,35.6,30.18,West,259,4.3,5.6,70,0.00,,,0.01,WUHU216HW,2013-10-25 20:39:00,
2013-10-25 16:44:00,44.8,35.6,30.18,West,275,3.6,4.9,70,0.00,,,0.01,WUHU216HW,2013-10-25 20:44:00,
2013-10-25 16:49:00,44.8,35.2,30.18,WNW,283,5.8,6.5,69,0.00,,,0.01,WUHU216HW,2013-10-25 20:49:00,
2013-10-25 16:54:00,45.5,35.4,30.18,SW,230,9.8,10.7,67,0.00,,,0.01,WUHU216HW,2013-10-25 20:54:00,
2013-10-25 16:59:00,45.5,35.0,30.18,WSW,251,7.3,8.9,66,0.00,,,0.01,WUHU216HW,2013-10-25 20:59:00,
2013-10-25 17:04:00,45.0,34.1,30.18,West,259,6.6,7.4,65,0.00,,,0.01,WUHU216HW,2013-10-25 21:04:00,
2013-10-25 17:09:00,44.5,34.1,30.17,WSW,245,5.5,6.7,66,0.00,,,0.01,WUHU216HW,2013-10-25 21:09:00,
2013-10-25 17:14:00,44.6,34.6,30.17,WSW,250,3.5,4.9,67,0.00,,,0.01,WUHU216HW,2013-10-25 21:14:00,
2013-10-25 17:19:00,45.4,35.3,30.17,WSW,257,3.1,4.7,67,0.00,,,0.01,WUHU216HW,2013-10-25 21:19:00,
2013-10-25 17:24:00,45.7,35.2,30.16,WSW,247,4.3,5.4,66,0.00,,,0.01,WUHU216HW,2013-10-25 21:24:00,
2013-10-25 17:29:00,45.9,35.4,30.16,WSW,238,8.1,9.4,66,0.00,,,0.01,WUHU216HW,2013-10-25 21:29:00,
2013-10-25 17:34:00,45.4,34.5,30.16,SW,230,5.9,7.6,65,0.00,,,0.01,WUHU216HW,2013-10-25 21:34:00,
2013-10-25 17:40:00,44.8,34.3,30.16,WNW,285,3.4,4.0,66,0.00,,,0.01,WUHU216HW,2013-10-25 21:40:00,
2013-10-25 17:45:00,44.5,34.5,30.16,WNW,294,2.5,3.1,67,0.00,,,0.01,WUHU216HW,2013-10-25 21:45:00,
2013-10-25 17:50:00,44.3,34.3,30.16,WSW,248,3.5,4.7,67,0.00,,,0.01,WUHU216HW,2013-10-25 21:50:00,
2013-10-25 17:55:00,44.5,34.5,30.15,West,261,5.1,6.3,67,0.00,,,0.01,WUHU216HW,2013-10-25 21:55:00,
2013-10-25 18:00:00,44.3,33.4,30.15,WSW,256,5.0,5.6,65,0.00,,,0.01,WUHU216HW,2013-10-25 22:00:00,
2013-10-25 18:05:00,43.9,32.6,30.15,WSW,241,6.2,7.8,64,0.00,,,0.01,WUHU216HW,2013-10-25 22:05:00,
2013-10-25 18:10:00,43.4,32.1,30.15,WSW,237,4.0,5.6,64,0.00,,,0.01,WUHU216HW,2013-10-25 22:10:00,
2013-10-25 18:15:00,43.0,32.2,30.15,WSW,247,4.8,6.7,65,0.00,,,0.01,WUHU216HW,2013-10-25 22:15:00,
2013-10-25 18:20:00,42.5,31.7,30.15,WNW,284,2.5,4.3,65,0.00,,,0.01,WUHU216HW,2013-10-25 22:20:00,
2013-10-25 18:25:00,42.1,31.8,30.15,NW,314,3.5,4.0,66,0.00,,,0.01,WUHU216HW,2013-10-25 22:25:00,
2013-10-25 18:30:00,41.6,31.7,30.15,WSW,254,3.8,4.7,67,0.00,,,0.01,WUHU216HW,2013-10-25 22:30:00,
2013-10-25 18:35:00,41.4,31.5,30.15,WSW,252,2.6,2.9,67,0.00,,,0.01,WUHU216HW,2013-10-25 22:35:00,
2013-10-25 18:40:00,41.0,31.5,30.15,WSW,253,3.1,3.4,69,0.00,,,0.01,WUHU216HW,2013-10-25 22:40:00,
2013-10-25 18:45:00,40.9,31.8,30.15,SW,233,3.3,4.3,70,0.00,,,0.01,WUHU216HW,2013-10-25 22:45:00,
2013-10-25 18:50:00,40.7,31.6,30.15,West,265,3.8,4.7,70,0.00,,,0.01,WUHU216HW,2013-10-25 22:50:00,
2013-10-25 18:55:00,40.5,31.8,30.15,WSW,240,2.2,3.8,71,0.00,,,0.01,WUHU216HW,2013-10-25 22:55:00,
2013-10-25 19:00:00,40.1,31.5,30.15,WSW,238,3.6,4.5,71,0.00,,,0.01,WUHU216HW,2013-10-25 23:00:00,
2013-10-25 19:05:00,40.0,31.4,30.14,WSW,244,2.2,2.7,71,0.00,,,0.01,WUHU216HW,2013-10-25 23:05:00,
2013-10-25 19:10:00,39.4,30.8,30.14,WSW,249,3.3,5.1,71,0.00,,,0.01,WUHU216HW,2013-10-25 23:10:00,
2013-10-25 19:15:00,39.2,31.0,30.14,SW,228,2.0,2.9,72,0.00,,,0.01,WUHU216HW,2013-10-25 23:15:00,
2013-10-25 19:20:00,38.9,30.7,30.14,WSW,250,3.4,4.5,72,0.00,,,0.01,WUHU216HW,2013-10-25 23:20:00,
2013-10-25 19:25:00,38.5,30.3,30.14,WSW,237,1.5,1.8,72,0.00,,,0.01,WUHU216HW,2013-10-25 23:25:00,
2013-10-25 19:30:00,38.2,30.4,30.14,WSW,245,1.5,1.8,73,0.00,,,0.01,WUHU216HW,2013-10-25 23:30:00,
2013-10-25 19:35:00,37.8,30.4,30.14,SW,225,0.9,1.1,74,0.00,,,0.01,WUHU216HW,2013-10-25 23:35:00,
2013-10-25 19:40:00,37.6,30.2,30.13,WSW,243,1.4,1.8,74,0.00,,,0.01,WUHU216HW,2013-10-25 23:40:00,
2013-10-25 19:45:00,37.3,30.3,30.13,SW,225,1.5,2.7,75,0.00,,,0.01,WUHU216HW,2013-10-25 23:45:00,
2013-10-25 19:50:00,37.1,30.1,30.13,SW,225,1.5,2.5,75,0.00,,,0.01,WUHU216HW,2013-10-25 23:50:00,
2013-10-25 19:55:00,36.9,29.9,30.13,SW,225,0.6,1.1,75,0.00,,,0.01,WUHU216HW,2013-10-25 23:55:00,
2013-10-25 20:00:00,36.7,29.7,30.13,SW,232,1.4,2.7,75,0.00,,,0.01,WUHU216HW,2013-10-26 00:00:00,
2013-10-25 20:05:00,36.7,30.0,30.12,SSW,213,3.1,4.7,76,0.00,,,0.01,WUHU216HW,2013-10-26 00:05:00,
2013-10-25 20:10:00,36.7,30.0,30.12,WSW,238,1.4,2.0,76,0.00,,,0.01,WUHU216HW,2013-10-26 00:10:00,
2013-10-25 20:16:00,36.5,29.8,30.12,NW,312,0.4,0.9,76,0.00,,,0.01,WUHU216HW,2013-10-26 00:16:00,
2013-10-25 20:21:00,36.4,29.7,30.12,SSW,197,2.1,2.2,76,0.00,,,0.01,WUHU216HW,2013-10-26 00:21:00,
2013-10-25 20:26:00,36.2,29.5,30.12,SW,216,1.3,2.2,76,0.00,,,0.01,WUHU216HW,2013-10-26 00:26:00,
2013-10-25 20:31:00,35.8,29.5,30.11,South,171,1.6,2.2,78,0.00,,,0.01,WUHU216HW,2013-10-26 00:31:00,
2013-10-25 20:36:00,35.6,29.3,30.11,South,191,0.2,0.4,78,0.00,,,0.01,WUHU216HW,2013-10-26 00:36:00,
2013-10-25 20:41:00,35.5,29.2,30.10,SSE,152,0.5,0.9,78,0.00,,,0.01,WUHU216HW,2013-10-26 00:41:00,
2013-10-25 20:46:00,35.5,29.6,30.10,South,189,1.0,1.8,79,0.00,,,0.01,WUHU216HW,2013-10-26 00:46:00,
2013-10-25 20:51:00,35.6,29.7,30.10,West,260,0.4,0.9,79,0.00,,,0.01,WUHU216HW,2013-10-26 00:51:00,
2013-10-25 20:56:00,35.6,30.0,30.09,SW,224,0.9,1.1,80,0.00,,,0.01,WUHU216HW,2013-10-26 00:56:00,
2013-10-25 21:01:00,35.6,30.0,30.09,South,187,1.7,3.6,80,0.00,,,0.01,WUHU216HW,2013-10-26 01:01:00,
2013-10-25 21:06:00,35.8,30.2,30.09,SSW,203,0.8,1.3,80,0.00,,,0.01,WUHU216HW,2013-10-26 01:06:00,
2013-10-25 21:11:00,36.0,30.4,30.09,SW,225,1.3,1.6,80,0.00,,,0.01,WUHU216HW,2013-10-26 01:11:00,
2013-10-25 21:16:00,36.0,30.4,30.08,SW,234,2.0,2.5,80,0.00,,,0.01,WUHU216HW,2013-10-26 01:16:00,
2013-10-25 21:21:00,36.0,30.4,30.08,SSE,162,0.2,0.7,80,0.00,,,0.01,WUHU216HW,2013-10-26 01:21:00,
2013-10-25 21:26:00,36.0,30.4,30.08,SSW,202,1.8,2.7,80,0.00,,,0.01,WUHU216HW,2013-10-26 01:26:00,
2013-10-25 21:31:00,36.2,30.6,30.08,SSE,162,1.0,1.8,80,0.00,,,0.01,WUHU216HW,2013-10-26 01:31:00,
2013-10-25 21:36:00,36.2,30.6,30.08,WSW,240,1.0,1.8,80,0.00,,,0.01,WUHU216HW,2013-10-26 01:36:00,
2013-10-25 21:41:00,36.0,30.4,30.08,SSW,196,1.1,2.5,80,0.00,,,0.01,WUHU216HW,2013-10-26 01:41:00,
2013-10-25 21:46:00,36.2,30.6,30.08,WSW,247,1.3,1.8,80,0.00,,,0.01,WUHU216HW,2013-10-26 01:46:00,
2013-10-25 21:51:00,36.2,30.6,30.08,SW,216,1.6,2.7,80,0.00,,,0.01,WUHU216HW,2013-10-26 01:51:00,
2013-10-25 21:56:00,36.4,30.8,30.07,South,181,0.9,1.8,80,0.00,,,0.01,WUHU216HW,2013-10-26 01:56:00,
2013-10-25 22:01:00,36.4,30.8,30.07,SSE,154,1.7,2.7,80,0.00,,,0.01,WUHU216HW,2013-10-26 02:01:00,
2013-10-25 22:06:00,36.4,30.8,30.07,SW,219,1.3,2.9,80,0.00,,,0.01,WUHU216HW,2013-10-26 02:06:00,
2013-10-25 22:11:00,36.2,30.6,30.07,SE,144,1.1,2.2,80,0.00,,,0.01,WUHU216HW,2013-10-26 02:11:00,
2013-10-25 22:16:00,36.2,30.6,30.06,SSW,194,2.5,4.7,80,0.00,,,0.01,WUHU216HW,2013-10-26 02:16:00,
2013-10-25 22:21:00,36.0,30.4,30.06,SSW,207,1.3,1.8,80,0.00,,,0.01,WUHU216HW,2013-10-26 02:21:00,
2013-10-25 22:26:00,36.0,30.4,30.06,SSW,198,2.5,3.4,80,0.00,,,0.01,WUHU216HW,2013-10-26 02:26:00,
2013-10-25 22:31:00,36.0,30.4,30.05,SSE,161,4.5,6.3,80,0.00,,,0.01,WUHU216HW,2013-10-26 02:31:00,
2013-10-25 22:36:00,36.2,30.6,30.05,SW,231,2.6,3.1,80,0.00,,,0.01,WUHU216HW,2013-10-26 02:36:00,
2013-10-25 22:42:00,36.4,30.8,30.05,SSW,212,1.0,1.1,80,0.00,,,0.01,WUHU216HW,2013-10-26 02:42:00,
2013-10-25 22:47:00,36.7,31.1,30.05,SSW,210,4.5,5.4,80,0.00,,,0.01,WUHU216HW,2013-10-26 02:47:00,
2013-10-25 22:52:00,36.7,31.1,30.04,SSW,194,3.0,4.7,80,0.00,,,0.01,WUHU216HW,2013-10-26 02:52:00,
2013-10-25 22:57:00,37.1,31.5,30.04,SW,219,4.8,5.8,80,0.00,,,0.01,WUHU216HW,2013-10-26 02:57:00,
2013-10-25 23:02:00,37.3,31.7,30.04,SSW,212,3.3,6.7,80,0.00,,,0.01,WUHU216HW,2013-10-26 03:02:00,
2013-10-25 23:07:00,37.6,31.6,30.04,SW,218,2.4,3.1,79,0.00,,,0.01,WUHU216HW,2013-10-26 03:07:00,
2013-10-25 23:12:00,37.8,31.8,30.04,WNW,303,1.1,3.4,79,0.00,,,0.01,WUHU216HW,2013-10-26 03:12:00,
2013-10-25 23:17:00,38.0,31.6,30.04,SSW,204,4.8,6.3,78,0.00,,,0.01,WUHU216HW,2013-10-26 03:17:00,
2013-10-25 23:22:00,38.3,31.9,30.04,SW,235,3.6,4.9,78,0.00,,,0.01,WUHU216HW,2013-10-26 03:22:00,
2013-10-25 23:27:00,38.3,31.9,30.04,SW,221,4.4,6.3,78,0.00,,,0.01,WUHU216HW,2013-10-26 03:27:00,
2013-10-25 23:32:00,38.5,31.8,30.04,SW,233,4.6,10.5,76,0.00,,,0.01,WUHU216HW,2013-10-26 03:32:00,
2013-10-25 23:37:00,38.7,32.0,30.03,SSW,209,3.3,7.6,76,0.00,,,0.01,WUHU216HW,2013-10-26 03:37:00,
2013-10-25 23:42:00,39.1,32.4,30.03,SW,214,3.7,4.7,76,0.00,,,0.01,WUHU216HW,2013-10-26 03:42:00,
2013-10-25 23:47:00,39.2,32.1,30.02,WSW,242,5.2,8.5,75,0.00,,,0.01,WUHU216HW,2013-10-26 03:47:00,
2013-10-25 23:52:00,39.4,32.3,30.02,SW,225,7.8,8.5,75,0.00,,,0.01,WUHU216HW,2013-10-26 03:52:00,
2013-10-25 23:57:00,39.6,32.5,30.02,SSW,194,2.9,6.5,75,0.00,,,0.01,WUHU216HW,2013-10-26 03:57:00,